LFSB/MLH METAR and TAF weather

Enter ICAO airport designator
Station Type Date Time Source
LFSB METAR 2019/04/19 08:00 UTC NOAA

LFSB 190800Z VRB02KT CAVOK 15/07 Q1026 NOSIG


Station Type Date Time Source
LFSB Decoded METAR 2019/04/19 08:00 UTC NOAA

Bale-Mulhouse, France (LFSB) 47-36N 007-31E 271M
Apr 19, 2019 - 04:00 AM EDT / 2019.04.19 0800 UTC
Wind: Variable at 2 MPH (2 KT):0
Visibility: greater than 7 mile(s):0
Temperature: 59 F (15 C)
Dew Point: 44 F (7 C)
Relative Humidity: 58%
Pressure (altimeter): 30.30 in. Hg (1026 hPa)
ob: LFSB 190800Z VRB02KT CAVOK 15/07 Q1026 NOSIG
cycle: 8

Station Type Date Time Source
LFSB TAF 2019/04/19 06:21 UTC NOAA

TAF TAF LFSB 190500Z 1906/2006 36005KT CAVOK
BECMG 1910/1912 FEW060TCU
TEMPO 1912/1917 FEW055CB
BECMG 1917/1919 NSC

Example: see airport list